Time;durP1;ratioP1;P1;durP2;ratioP2;P2;SDS_P1;SDS_P2;PMS_P1;PMS_P2;Temp;Humidity;BMP_temperature;BMP_pressure;BME280_temperature;BME280_humidity;BME280_pressure;Samples;Min_cycle;Max_cycle;Signal;HPM_P1;HPM_P2
2023/03/08 00:00:40;;;;;;;4.30;3.60;;;0.60;99.90;;;;;;5000192;28;20061;-43
2023/03/08 00:03:12;;;;;;;4.78;3.70;;;0.60;99.90;;;;;;4999345;28;20033;-43
2023/03/08 00:05:37;;;;;;;4.93;3.60;;;0.50;99.90;;;;;;4999673;28;20104;-44
2023/03/08 00:08:03;;;;;;;3.90;3.22;;;0.50;99.90;;;;;;5000298;28;20037;-43
2023/03/08 00:10:28;;;;;;;3.95;3.33;;;0.50;99.90;;;;;;4999915;28;20033;-43
2023/03/08 00:12:54;;;;;;;4.28;3.40;;;0.50;99.90;;;;;;4999561;28;20033;-44
2023/03/08 00:15:20;;;;;;;3.45;3.00;;;0.50;99.90;;;;;;4999240;28;20044;-42
2023/03/08 00:17:45;;;;;;;3.95;3.10;;;0.50;99.90;;;;;;4999634;28;20147;-44
2023/03/08 00:20:12;;;;;;;4.15;2.80;;;0.50;99.90;;;;;;4997992;28;20478;-44
2023/03/08 00:22:39;;;;;;;5.15;3.50;;;0.50;99.90;;;;;;4999565;28;20037;-43
2023/03/08 00:25:07;;;;;;;4.88;3.67;;;0.40;99.90;;;;;;4999589;28;20883;-43
2023/03/08 00:27:33;;;;;;;4.80;3.70;;;0.50;99.90;;;;;;4999574;28;20026;-42
2023/03/08 00:29:59;;;;;;;4.10;3.65;;;0.50;99.90;;;;;;4999629;28;20036;-43
2023/03/08 00:32:28;;;;;;;6.88;4.07;;;0.50;99.90;;;;;;4999822;28;20030;-43
2023/03/08 00:34:54;;;;;;;6.22;4.55;;;0.50;99.90;;;;;;5000166;28;20137;-43
2023/03/08 00:37:20;;;;;;;5.18;4.22;;;0.50;99.90;;;;;;5000061;28;20825;-43
2023/03/08 00:39:52;;;;;;;4.85;4.15;;;0.50;99.90;;;;;;4999694;28;20030;-43
2023/03/08 00:42:18;;;;;;;8.88;5.03;;;0.50;99.90;;;;;;4999598;28;20033;-43
2023/03/08 00:44:47;;;;;;;5.15;4.65;;;0.50;99.90;;;;;;4999871;28;20080;-43
2023/03/08 00:47:13;;;;;;;6.32;5.03;;;0.50;99.90;;;;;;4999213;28;20036;-43
2023/03/08 00:49:39;;;;;;;6.00;5.38;;;0.50;99.90;;;;;;4999375;28;20022;-43
2023/03/08 00:52:05;;;;;;;7.25;6.18;;;0.60;99.90;;;;;;4999341;28;20022;-43
2023/03/08 00:54:31;;;;;;;7.88;6.60;;;0.60;99.90;;;;;;4998857;28;20572;-43
2023/03/08 00:56:56;;;;;;;8.65;7.15;;;0.70;99.90;;;;;;4999307;28;20763;-44
2023/03/08 00:59:22;;;;;;;9.35;7.38;;;0.70;99.90;;;;;;4998902;28;20428;-44
2023/03/08 01:01:50;;;;;;;9.43;7.90;;;0.70;99.90;;;;;;4999316;28;20527;-42
2023/03/08 01:04:16;;;;;;;11.20;7.75;;;0.60;99.90;;;;;;4999656;28;20464;-43
2023/03/08 01:06:42;;;;;;;14.32;9.90;;;0.60;99.90;;;;;;5001316;28;20845;-43
2023/03/08 01:09:09;;;;;;;10.55;8.77;;;0.60;99.90;;;;;;5003074;28;20037;-44
2023/03/08 01:11:35;;;;;;;11.40;9.32;;;0.50;99.90;;;;;;5003094;28;20022;-41
2023/03/08 01:14:01;;;;;;;11.80;9.70;;;0.50;99.90;;;;;;5003261;28;20112;-42
2023/03/08 01:16:30;;;;;;;12.57;9.85;;;0.50;99.90;;;;;;5002052;28;20056;-42
2023/03/08 01:18:56;;;;;;;11.85;9.95;;;0.50;99.90;;;;;;5002318;28;20030;-43
2023/03/08 01:21:23;;;;;;;13.45;10.50;;;0.50;99.90;;;;;;5003146;28;20017;-42
2023/03/08 01:23:52;;;;;;;13.68;10.20;;;0.50;99.90;;;;;;5002485;28;20026;-43
2023/03/08 01:26:26;;;;;;;11.60;9.45;;;0.50;99.90;;;;;;5001111;28;20053;-44
2023/03/08 01:28:51;;;;;;;13.52;11.27;;;0.50;99.90;;;;;;5001897;28;20133;-44
2023/03/08 01:31:19;;;;;;;14.23;10.73;;;0.50;99.90;;;;;;5001636;28;20028;-43
2023/03/08 01:33:45;;;;;;;13.93;10.60;;;0.40;99.90;;;;;;5002554;28;20033;-42
2023/03/08 01:36:14;;;;;;;15.90;11.10;;;0.50;99.90;;;;;;5001319;28;20069;-43
2023/03/08 01:38:40;;;;;;;12.68;10.52;;;0.40;99.90;;;;;;5001567;28;20038;-43
2023/03/08 01:41:07;;;;;;;13.73;10.80;;;0.40;99.90;;;;;;5001651;28;20385;-43
2023/03/08 01:43:45;;;;;;;15.07;10.70;;;0.50;99.90;;;;;;5001409;28;20022;-43
2023/03/08 01:46:18;;;;;;;13.00;10.90;;;0.50;99.90;;;;;;5001969;28;20022;-43
2023/03/08 01:48:52;;;;;;;;;;;0.50;99.90;;;;;;5002825;28;20034;-44
2023/03/08 01:52:02;;;;;;;19.52;11.40;;;0.50;99.90;;;;;;5001771;28;19909;-44
2023/03/08 01:54:33;;;;;;;19.60;11.13;;;0.50;99.90;;;;;;4994938;28;20137;-43
2023/03/08 01:57:02;;;;;;;16.75;12.05;;;0.50;99.90;;;;;;5001282;28;20157;-43
2023/03/08 01:59:30;;;;;;;16.15;12.32;;;0.50;99.90;;;;;;5002403;28;20034;-43
2023/03/08 02:01:59;;;;;;;16.40;12.23;;;0.50;99.90;;;;;;5002755;28;20084;-43
2023/03/08 02:04:25;;;;;;;16.90;12.60;;;0.60;99.90;;;;;;5000691;28;20068;-43
2023/03/08 02:06:51;;;;;;;16.67;12.60;;;0.60;99.90;;;;;;5001985;28;20661;-44
2023/03/08 02:09:17;;;;;;;17.23;12.57;;;0.70;99.90;;;;;;5001399;28;20026;-43
2023/03/08 02:11:43;;;;;;;14.80;11.32;;;0.70;99.90;;;;;;5001923;28;20033;-42
2023/03/08 02:14:09;;;;;;;16.33;11.65;;;0.80;99.90;;;;;;5001855;28;20084;-43
2023/03/08 02:16:35;;;;;;;15.35;10.80;;;0.80;99.90;;;;;;5002022;28;20486;-43
2023/03/08 02:19:29;;;;;;;16.98;11.18;;;0.80;99.90;;;;;;4999952;28;20108;-43
2023/03/08 02:21:55;;;;;;;17.38;11.63;;;0.90;99.90;;;;;;4988063;28;20040;-43
2023/03/08 02:24:22;;;;;;;18.00;12.63;;;0.90;99.90;;;;;;5000525;28;20033;-42
2023/03/08 02:26:51;;;;;;;15.88;11.38;;;1.00;99.90;;;;;;5000971;28;20453;-43
2023/03/08 02:29:17;;;;;;;14.73;11.73;;;1.00;99.90;;;;;;5000358;28;20474;-43
2023/03/08 02:31:43;;;;;;;15.70;11.75;;;1.00;99.90;;;;;;5001955;28;20026;-43
2023/03/08 02:34:08;;;;;;;16.65;11.80;;;1.00;99.90;;;;;;4999558;28;20475;-43
2023/03/08 02:36:34;;;;;;;15.02;11.15;;;1.00;99.90;;;;;;5000733;28;20077;-42
2023/03/08 02:38:59;;;;;;;15.25;10.50;;;1.10;99.90;;;;;;4999514;28;20025;-44
2023/03/08 02:41:25;;;;;;;16.83;10.55;;;1.10;99.90;;;;;;5000162;28;20041;-44
2023/03/08 02:43:50;;;;;;;14.88;11.18;;;1.00;99.90;;;;;;5000588;28;20084;-43
2023/03/08 02:46:16;;;;;;;16.70;11.43;;;1.10;99.90;;;;;;5000200;28;20492;-44
2023/03/08 02:48:41;;;;;;;17.88;12.68;;;1.10;99.90;;;;;;5000338;28;20014;-43
2023/03/08 02:51:07;;;;;;;17.95;12.30;;;1.10;99.90;;;;;;5001233;28;20061;-44
2023/03/08 02:53:32;;;;;;;17.00;12.27;;;1.10;99.90;;;;;;5000821;28;20033;-43
2023/03/08 02:56:01;;;;;;;18.02;12.15;;;1.10;99.90;;;;;;5000315;28;20054;-42
2023/03/08 02:58:30;;;;;;;25.25;12.32;;;1.10;99.90;;;;;;5000797;28;20109;-42
2023/03/08 03:00:55;;;;;;;16.00;12.02;;;1.10;99.90;;;;;;4997956;28;20022;-43
2023/03/08 03:03:21;;;;;;;15.55;11.55;;;1.10;99.90;;;;;;5001188;28;20561;-43
2023/03/08 03:05:46;;;;;;;16.45;11.55;;;1.10;99.90;;;;;;5000765;28;20104;-43
2023/03/08 03:08:15;;;;;;;16.17;11.75;;;1.20;99.90;;;;;;5000800;28;20030;-43
2023/03/08 03:10:47;;;;;;;18.17;12.73;;;1.20;99.90;;;;;;5001258;28;20565;-43
2023/03/08 03:13:15;;;;;;;17.67;11.80;;;1.20;99.90;;;;;;5000622;28;20033;-44
2023/03/08 03:15:40;;;;;;;17.52;11.75;;;1.20;99.90;;;;;;5000214;28;20048;-44
2023/03/08 03:18:06;;;;;;;15.20;11.52;;;1.20;99.90;;;;;;5000579;28;20018;-44
2023/03/08 03:20:33;;;;;;;15.90;11.10;;;1.20;99.90;;;;;;5000810;28;20042;-44
2023/03/08 03:22:58;;;;;;;17.05;12.38;;;1.20;99.90;;;;;;4999522;28;20029;-44
2023/03/08 03:25:24;;;;;;;19.27;11.30;;;1.20;99.90;;;;;;5000517;28;20030;-44
2023/03/08 03:27:50;;;;;;;17.50;12.25;;;1.20;99.90;;;;;;5000550;28;20389;-43
2023/03/08 03:30:17;;;;;;;16.55;11.85;;;1.20;99.90;;;;;;4998951;28;20022;-43
2023/03/08 03:32:42;;;;;;;17.95;12.30;;;1.20;99.90;;;;;;5000820;28;20468;-44
2023/03/08 03:35:08;;;;;;;17.48;12.05;;;1.20;99.90;;;;;;4999767;28;20030;-43
2023/03/08 03:37:43;;;;;;;17.27;11.32;;;1.20;99.90;;;;;;5000244;28;20044;-43
2023/03/08 03:40:10;;;;;;;20.27;12.63;;;1.30;99.90;;;;;;5000373;28;20025;-43
2023/03/08 03:42:35;;;;;;;28.10;13.45;;;1.30;99.90;;;;;;4998910;28;20037;-43
2023/03/08 03:45:01;;;;;;;30.05;13.80;;;1.30;99.90;;;;;;4998920;28;20030;-43
2023/03/08 03:47:27;;;;;;;27.45;15.88;;;1.30;99.90;;;;;;4999150;28;20088;-43
2023/03/08 03:49:53;;;;;;;33.85;16.02;;;1.30;99.90;;;;;;4999486;28;20053;-44
2023/03/08 03:52:18;;;;;;;26.20;16.83;;;1.30;99.90;;;;;;4999283;28;20882;-44
2023/03/08 03:54:44;;;;;;;29.85;15.80;;;1.30;99.90;;;;;;4999604;28;20047;-43
2023/03/08 03:57:09;;;;;;;22.52;14.90;;;1.30;99.90;;;;;;4998593;28;20060;-43
2023/03/08 03:59:35;;;;;;;33.20;16.02;;;1.30;99.90;;;;;;5000494;28;20037;-42
2023/03/08 04:02:10;;;;;;;30.98;15.45;;;1.30;99.90;;;;;;5000746;28;20029;-43
2023/03/08 04:04:35;;;;;;;29.27;15.48;;;1.30;99.90;;;;;;4999537;28;20025;-42
2023/03/08 04:07:01;;;;;;;35.95;15.70;;;1.30;99.90;;;;;;4998617;28;20040;-43
2023/03/08 04:09:26;;;;;;;23.73;15.18;;;1.30;99.90;;;;;;5000115;28;20022;-43
2023/03/08 04:11:52;;;;;;;26.15;15.77;;;1.30;99.90;;;;;;4999223;28;20465;-43
2023/03/08 04:14:17;;;;;;;29.65;16.77;;;1.40;99.90;;;;;;4999649;28;20338;-43
2023/03/08 04:16:43;;;;;;;28.15;17.20;;;1.30;99.90;;;;;;4999830;28;20044;-43
2023/03/08 04:19:12;;;;;;;34.92;17.15;;;1.40;99.90;;;;;;4999199;28;20030;-43
2023/03/08 04:21:37;;;;;;;27.95;16.20;;;1.40;99.90;;;;;;4999861;28;20026;-43
2023/03/08 04:24:03;;;;;;;37.78;18.38;;;1.40;99.90;;;;;;4999144;28;20025;-43
2023/03/08 04:26:29;;;;;;;25.60;15.10;;;1.40;99.90;;;;;;4999422;28;20026;-43
2023/03/08 04:28:55;;;;;;;37.85;16.88;;;1.40;99.90;;;;;;5000045;28;20062;-43
2023/03/08 04:31:26;;;;;;;33.05;17.17;;;1.40;99.90;;;;;;4999906;28;20084;-42
2023/03/08 04:33:53;;;;;;;32.40;16.83;;;1.40;99.90;;;;;;4999427;28;20160;-42
2023/03/08 04:36:19;;;;;;;33.88;16.98;;;1.40;99.90;;;;;;4999060;28;20044;-43
2023/03/08 04:38:46;;;;;;;34.92;17.38;;;1.40;99.90;;;;;;4999254;28;20033;-43
2023/03/08 04:41:12;;;;;;;38.08;18.45;;;1.50;99.90;;;;;;5000092;28;20026;-42
2023/03/08 04:43:46;;;;;;;30.02;17.33;;;1.50;99.90;;;;;;5003665;28;20109;-43
2023/03/08 04:46:12;;;;;;;34.83;18.45;;;1.40;99.90;;;;;;4983466;28;20018;-43
2023/03/08 04:48:38;;;;;;;47.25;19.52;;;1.50;99.90;;;;;;4998984;28;20068;-43
2023/03/08 04:51:06;;;;;;;70.13;22.67;;;1.50;99.90;;;;;;5004207;28;20038;-44
2023/03/08 04:53:32;;;;;;;39.88;22.05;;;1.50;99.90;;;;;;5002273;28;20057;-42
2023/03/08 04:56:00;;;;;;;51.92;23.25;;;1.50;99.90;;;;;;5002032;28;20196;-42
2023/03/08 04:58:27;;;;;;;37.75;21.38;;;1.50;99.90;;;;;;5002406;28;20138;-44
2023/03/08 05:00:53;;;;;;;42.28;20.67;;;1.50;99.90;;;;;;5002704;28;20084;-43
2023/03/08 05:03:19;;;;;;;39.65;22.15;;;1.50;99.90;;;;;;5002515;28;20362;-43
2023/03/08 05:05:50;;;;;;;48.65;21.90;;;1.50;99.90;;;;;;5003618;28;20045;-43
2023/03/08 05:08:15;;;;;;;45.20;23.25;;;1.50;99.90;;;;;;5001557;28;20488;-43
2023/03/08 05:10:56;;;;;;;48.85;24.13;;;1.50;99.90;;;;;;5003891;28;20029;-43
2023/03/08 05:13:23;;;;;;;48.03;24.88;;;1.50;99.90;;;;;;5003015;28;20037;-43
2023/03/08 05:15:48;;;;;;;50.30;26.02;;;1.50;99.90;;;;;;5001438;28;20034;-43
2023/03/08 05:18:14;;;;;;;46.42;24.65;;;1.50;99.90;;;;;;5003406;28;20036;-44
2023/03/08 05:20:40;;;;;;;50.65;26.02;;;1.50;99.90;;;;;;5002381;28;20041;-44
2023/03/08 05:23:05;;;;;;;51.58;26.10;;;1.60;99.90;;;;;;5002861;28;20022;-44
2023/03/08 05:25:32;;;;;;;58.42;28.63;;;1.50;99.90;;;;;;5003623;28;20022;-44
2023/03/08 05:28:07;;;;;;;48.42;25.63;;;1.50;99.90;;;;;;5002264;28;20037;-43
2023/03/08 05:30:32;;;;;;;50.35;26.45;;;1.50;99.90;;;;;;5002915;28;20033;-43
2023/03/08 05:32:58;;;;;;;46.13;23.67;;;1.50;99.90;;;;;;5004562;28;20453;-43
2023/03/08 05:35:23;;;;;;;47.13;23.88;;;1.50;99.90;;;;;;5002028;28;20115;-42
2023/03/08 05:37:49;;;;;;;47.10;23.80;;;1.50;99.90;;;;;;5002964;28;20378;-43
2023/03/08 05:40:15;;;;;;;54.20;25.92;;;1.50;99.90;;;;;;5003012;28;20036;-43
2023/03/08 05:42:40;;;;;;;52.92;26.85;;;1.50;99.90;;;;;;5002663;28;20064;-44
2023/03/08 05:45:07;;;;;;;50.03;26.42;;;1.60;99.90;;;;;;5002513;28;20545;-43
2023/03/08 05:47:32;;;;;;;49.45;24.83;;;1.60;99.90;;;;;;5003225;28;20021;-44
2023/03/08 05:49:58;;;;;;;53.78;25.83;;;1.60;99.90;;;;;;5002177;28;20692;-44
2023/03/08 05:52:23;;;;;;;52.50;25.73;;;1.60;99.90;;;;;;5002628;28;20084;-44
2023/03/08 05:54:49;;;;;;;48.67;24.90;;;1.60;99.90;;;;;;5002768;28;20095;-44
2023/03/08 05:57:20;;;;;;;53.15;27.75;;;1.60;99.90;;;;;;5000997;28;20065;-43
2023/03/08 05:59:46;;;;;;;64.38;31.15;;;1.60;99.90;;;;;;5002445;28;20080;-42
2023/03/08 06:02:12;;;;;;;67.00;32.38;;;1.60;99.90;;;;;;5001650;28;20117;-43
2023/03/08 06:04:37;;;;;;;62.80;32.08;;;1.60;99.90;;;;;;5001143;28;20021;-43
2023/03/08 06:07:09;;;;;;;58.03;30.83;;;1.50;99.90;;;;;;5000253;28;20030;-43
2023/03/08 06:09:37;;;;;;;57.35;31.30;;;1.50;99.90;;;;;;5002209;28;20026;-44
2023/03/08 06:12:03;;;;;;;66.35;32.88;;;1.50;99.90;;;;;;5000265;28;20022;-43
2023/03/08 06:14:28;;;;;;;59.70;30.02;;;1.50;99.90;;;;;;5002603;28;20421;-43
2023/03/08 06:17:00;;;;;;;63.17;31.73;;;1.50;99.90;;;;;;5001574;28;20073;-44
2023/03/08 06:19:26;;;;;;;67.63;33.40;;;1.50;99.90;;;;;;5003213;28;20022;-43
2023/03/08 06:21:57;;;;;;;65.75;33.72;;;1.40;99.90;;;;;;5002959;28;20855;-43
2023/03/08 06:24:23;;;;;;;61.53;30.92;;;1.40;99.90;;;;;;5002057;28;20026;-43
2023/03/08 06:26:53;;;;;;;58.45;30.88;;;1.40;99.90;;;;;;5002064;28;20116;-43
2023/03/08 06:29:22;;;;;;;61.25;30.20;;;1.40;99.90;;;;;;5001431;28;20030;-43
2023/03/08 06:31:48;;;;;;;58.30;28.05;;;1.40;99.90;;;;;;5001005;28;20021;-42
2023/03/08 06:34:13;;;;;;;49.80;26.48;;;1.40;99.90;;;;;;5001887;28;20038;-42
2023/03/08 06:36:39;;;;;;;53.90;26.60;;;1.40;99.90;;;;;;5002067;28;20038;-43
2023/03/08 06:39:05;;;;;;;60.20;26.60;;;1.50;99.90;;;;;;4996469;28;20142;-42
2023/03/08 06:41:31;;;;;;;61.30;29.27;;;1.50;99.90;;;;;;4992584;28;20033;-43
2023/03/08 06:44:03;;;;;;;60.53;28.08;;;1.50;99.90;;;;;;4998018;28;20053;-44
2023/03/08 06:46:29;;;;;;;54.30;27.02;;;1.50;99.90;;;;;;4996341;28;20099;-43
2023/03/08 06:48:54;;;;;;;46.95;25.33;;;1.50;99.90;;;;;;4996702;28;20678;-43
2023/03/08 06:51:20;;;;;;;50.05;25.10;;;1.50;99.90;;;;;;4998162;28;20064;-43
2023/03/08 06:53:46;;;;;;;55.53;25.20;;;1.50;99.90;;;;;;4996100;28;20430;-43
2023/03/08 06:56:14;;;;;;;48.28;24.70;;;1.50;99.90;;;;;;4998111;28;20084;-43
2023/03/08 06:58:40;;;;;;;51.15;26.13;;;1.50;99.90;;;;;;4998001;28;20116;-43
2023/03/08 07:01:11;;;;;;;53.78;28.10;;;1.50;99.90;;;;;;4996477;28;20107;-44
2023/03/08 07:03:37;;;;;;;52.55;28.73;;;1.60;99.90;;;;;;4997210;28;20057;-43
2023/03/08 07:06:06;;;;;;;58.22;30.05;;;1.60;99.90;;;;;;4996717;28;20555;-42
2023/03/08 07:08:35;;;;;;;57.35;29.42;;;1.60;99.90;;;;;;4996716;28;20025;-42
2023/03/08 07:11:01;;;;;;;53.53;27.75;;;1.60;99.90;;;;;;4997197;28;20038;-42
2023/03/08 07:13:28;;;;;;;52.17;29.58;;;1.60;99.90;;;;;;4995949;28;20311;-44
2023/03/08 07:15:54;;;;;;;53.63;26.73;;;1.60;99.90;;;;;;4996353;28;20096;-44
2023/03/08 07:18:21;;;;;;;65.15;30.15;;;1.60;99.90;;;;;;4996007;28;20022;-43
2023/03/08 07:20:55;;;;;;;50.50;27.30;;;1.60;99.90;;;;;;4994452;28;20144;-43
2023/03/08 07:23:21;;;;;;;57.08;28.98;;;1.60;99.90;;;;;;4996289;28;20101;-43
2023/03/08 07:25:46;;;;;;;54.90;27.95;;;1.60;99.90;;;;;;4996679;28;20034;-43
2023/03/08 07:28:12;;;;;;;65.68;31.20;;;1.60;99.90;;;;;;4994773;28;20014;-42
2023/03/08 07:30:37;;;;;;;59.40;29.17;;;1.60;99.90;;;;;;4997515;28;20033;-43
2023/03/08 07:33:03;;;;;;;60.05;28.38;;;1.60;99.90;;;;;;4996159;28;20021;-42
2023/03/08 07:35:29;;;;;;;50.92;27.48;;;1.60;99.90;;;;;;4997680;28;20481;-42
2023/03/08 07:37:54;;;;;;;56.97;27.80;;;1.60;99.90;;;;;;4996889;28;20026;-43
2023/03/08 07:40:20;;;;;;;59.80;31.05;;;1.70;99.90;;;;;;4996192;28;20108;-43
2023/03/08 07:42:46;;;;;;;66.20;31.50;;;1.70;99.90;;;;;;4996062;28;20028;-43
2023/03/08 07:45:11;;;;;;;69.10;31.77;;;1.70;99.90;;;;;;4996739;28;20030;-43
2023/03/08 07:47:37;;;;;;;61.03;30.23;;;1.70;99.90;;;;;;4997981;28;20033;-43
2023/03/08 07:50:03;;;;;;;63.95;29.92;;;1.70;99.90;;;;;;4996069;28;20389;-42
2023/03/08 07:52:30;;;;;;;63.08;29.40;;;1.70;99.90;;;;;;4997745;28;20030;-44
2023/03/08 07:54:56;;;;;;;55.15;28.67;;;1.70;99.90;;;;;;4996475;28;20042;-43
2023/03/08 07:57:22;;;;;;;51.20;27.17;;;1.80;99.90;;;;;;4995261;28;20060;-42
2023/03/08 07:59:49;;;;;;;52.20;26.17;;;1.80;99.90;;;;;;4996189;28;20497;-42
2023/03/08 08:02:18;;;;;;;50.30;25.77;;;1.80;99.90;;;;;;4995598;28;20037;-43
2023/03/08 08:04:47;;;;;;;58.97;27.02;;;1.90;99.90;;;;;;4996189;28;20022;-43
2023/03/08 08:07:14;;;;;;;54.28;27.98;;;1.90;99.90;;;;;;4997478;28;20757;-43
2023/03/08 08:09:40;;;;;;;56.08;27.67;;;2.00;99.90;;;;;;4995865;28;20018;-43
2023/03/08 08:12:06;;;;;;;51.80;27.13;;;2.00;99.90;;;;;;4996792;28;20071;-43
2023/03/08 08:14:32;;;;;;;54.40;25.77;;;2.00;99.90;;;;;;4997833;28;20103;-43
2023/03/08 08:16:57;;;;;;;46.90;26.23;;;2.10;99.90;;;;;;4996747;28;20046;-41
2023/03/08 08:19:24;;;;;;;55.78;27.67;;;2.10;99.90;;;;;;4996306;28;20133;-42
2023/03/08 08:21:49;;;;;;;52.53;26.58;;;2.20;99.90;;;;;;4996182;28;20030;-43
2023/03/08 08:24:15;;;;;;;53.65;26.23;;;2.20;99.90;;;;;;4995512;28;20460;-43
2023/03/08 08:26:47;;;;;;;53.05;27.30;;;2.20;99.90;;;;;;4995962;28;20026;-44
2023/03/08 08:29:15;;;;;;;53.30;27.55;;;2.30;99.90;;;;;;4996010;28;20034;-43
2023/03/08 08:31:41;;;;;;;54.45;26.33;;;2.30;99.90;;;;;;4995967;28;20127;-44
2023/03/08 08:34:07;;;;;;;55.60;28.13;;;2.40;99.90;;;;;;4996724;28;20447;-42
2023/03/08 08:36:36;;;;;;;56.33;28.77;;;2.50;99.90;;;;;;4997164;28;20500;-42
2023/03/08 08:39:02;;;;;;;58.17;30.27;;;2.50;99.90;;;;;;4996053;28;20034;-42
2023/03/08 08:41:29;;;;;;;52.95;26.98;;;2.50;99.90;;;;;;4997278;28;20084;-42
2023/03/08 08:43:58;;;;;;;50.72;27.65;;;2.60;99.90;;;;;;4996971;28;20116;-43
2023/03/08 08:46:26;;;;;;;52.10;27.00;;;2.70;99.90;;;;;;4996007;28;20297;-42
2023/03/08 08:48:52;;;;;;;49.38;26.00;;;2.70;99.90;;;;;;4996422;28;20041;-43
2023/03/08 08:51:18;;;;;;;48.33;27.17;;;2.80;99.90;;;;;;4995600;28;20453;-42
2023/03/08 08:53:43;;;;;;;52.13;27.88;;;2.80;99.90;;;;;;4995860;28;20036;-43
2023/03/08 08:56:28;;;;;;;42.90;23.63;;;2.90;99.90;;;;;;4996428;28;20057;-43
2023/03/08 08:59:00;;;;;;;42.38;23.35;;;2.90;99.90;;;;;;4994103;28;20049;-42
2023/03/08 09:01:30;;;;;;;43.05;21.20;;;2.90;99.90;;;;;;4994714;28;20064;-42
2023/03/08 09:03:59;;;;;;;37.53;21.20;;;3.00;99.90;;;;;;4995685;28;20030;-42
2023/03/08 09:06:26;;;;;;;34.92;20.42;;;3.00;99.90;;;;;;4992794;28;20026;-43
2023/03/08 09:08:57;;;;;;;32.90;18.75;;;3.00;99.90;;;;;;4995949;28;20033;-43
2023/03/08 09:11:24;;;;;;;29.38;18.00;;;3.10;99.90;;;;;;4996654;28;20022;-44
2023/03/08 09:13:50;;;;;;;32.25;19.52;;;3.10;99.90;;;;;;4995485;28;20203;-42
2023/03/08 09:16:28;;;;;;;29.35;18.58;;;3.10;99.90;;;;;;4994988;28;20137;-43
2023/03/08 09:18:55;;;;;;;32.50;19.40;;;3.10;99.90;;;;;;4996280;28;20042;-43
2023/03/08 09:21:22;;;;;;;34.38;19.27;;;3.10;99.90;;;;;;4995201;28;20046;-43
2023/03/08 09:23:50;;;;;;;33.30;18.88;;;3.10;99.90;;;;;;4996399;28;20485;-44
2023/03/08 09:26:23;;;;;;;33.83;20.38;;;3.10;99.90;;;;;;4994960;28;20132;-44
2023/03/08 09:28:48;;;;;;;34.05;20.45;;;3.10;99.90;;;;;;4997954;28;20053;-43
2023/03/08 09:31:16;;;;;;;34.88;20.20;;;3.20;99.90;;;;;;4998404;28;20750;-43
2023/03/08 09:33:45;;;;;;;32.90;20.05;;;3.20;99.90;;;;;;4998966;28;20117;-43
2023/03/08 09:36:11;;;;;;;33.40;19.60;;;3.20;99.90;;;;;;4998011;28;20065;-43
2023/03/08 09:38:39;;;;;;;32.55;19.55;;;3.20;99.90;;;;;;5000079;28;20835;-33
2023/03/08 09:41:14;;;;;;;30.95;18.13;;;3.10;99.90;;;;;;4997463;28;20153;-33
2023/03/08 09:43:50;;;;;;;32.88;18.88;;;3.10;99.90;;;;;;4999800;28;20346;-43
2023/03/08 09:46:22;;;;;;;28.10;17.20;;;3.10;99.90;;;;;;4997634;28;20728;-43
2023/03/08 09:48:49;;;;;;;27.77;16.30;;;3.20;99.90;;;;;;4997999;28;20030;-43
2023/03/08 09:51:18;;;;;;;24.52;15.38;;;3.20;99.90;;;;;;4998478;28;20034;-42
2023/03/08 09:53:56;;;;;;;23.17;14.75;;;3.30;99.90;;;;;;4997288;28;20370;-42
2023/03/08 09:56:30;;;;;;;24.35;14.48;;;3.30;99.90;;;;;;4998104;28;20045;-43
2023/03/08 09:59:18;;;;;;;22.95;13.82;;;3.30;99.90;;;;;;4998644;28;20034;-42
2023/03/08 10:02:11;;;;;;;23.13;14.27;;;3.30;99.90;;;;;;4997651;28;20033;-43
2023/03/08 10:04:45;;;;;;;27.45;17.05;;;3.40;99.90;;;;;;4998916;28;20862;-41
2023/03/08 10:07:26;;;;;;;26.10;17.05;;;3.40;99.90;;;;;;4996449;28;20022;-43
2023/03/08 10:10:08;;;;;;;25.35;16.38;;;3.40;99.90;;;;;;4997162;28;20041;-43
2023/03/08 10:12:54;;;;;;;21.90;14.95;;;3.40;99.90;;;;;;4998340;28;20029;-42
2023/03/08 10:15:23;;;;;;;21.98;15.52;;;3.50;99.90;;;;;;4996275;28;20103;-43
2023/03/08 10:18:22;;;;;;;23.10;14.52;;;3.50;99.90;;;;;;4998538;28;20068;-43
2023/03/08 10:20:48;;;;;;;23.58;16.33;;;3.50;99.90;;;;;;4984003;28;20045;-43
2023/03/08 10:23:20;;;;;;;19.90;14.35;;;3.60;99.90;;;;;;4997933;28;20026;-43
2023/03/08 10:25:47;;;;;;;19.92;14.00;;;3.60;99.90;;;;;;4997126;28;20108;-43
2023/03/08 10:28:18;;;;;;;21.33;14.20;;;3.60;99.90;;;;;;4997636;28;20025;-43
2023/03/08 10:30:53;;;;;;;21.73;15.00;;;3.70;99.90;;;;;;4997391;28;20033;-42
2023/03/08 10:33:21;;;;;;;18.30;13.77;;;3.70;99.90;;;;;;4998335;28;20394;-42
2023/03/08 10:36:11;;;;;;;20.90;13.98;;;3.70;99.90;;;;;;4998197;28;20041;-43
2023/03/08 10:38:37;;;;;;;20.48;13.68;;;3.80;99.90;;;;;;4997584;28;20088;-43
2023/03/08 10:41:15;;;;;;;20.10;14.82;;;3.90;99.90;;;;;;4996923;28;20022;-44
2023/03/08 10:43:49;;;;;;;20.45;14.40;;;3.90;99.90;;;;;;4995627;28;20049;-44
2023/03/08 10:46:20;;;;;;;23.13;15.02;;;4.00;99.90;;;;;;4995611;28;20038;-42
2023/03/08 10:48:49;;;;;;;21.35;15.30;;;4.00;99.90;;;;;;4997724;28;20037;-43
2023/03/08 10:51:25;;;;;;;24.13;15.43;;;4.00;99.90;;;;;;4996234;28;20033;-42
2023/03/08 10:53:57;;;;;;;20.27;14.45;;;4.00;99.90;;;;;;4998047;28;20018;-43
2023/03/08 10:56:43;;;;;;;21.58;15.32;;;4.10;99.90;;;;;;4997119;28;20738;-43
2023/03/08 10:59:21;;;;;;;25.05;15.57;;;4.20;99.90;;;;;;4994179;28;20026;-43
2023/03/08 11:02:11;;;;;;;25.00;16.38;;;4.20;99.90;;;;;;4997624;28;20037;-43
2023/03/08 11:04:37;;;;;;;23.15;14.73;;;4.30;99.90;;;;;;4998343;28;20038;-43
2023/03/08 11:07:17;;;;;;;23.42;14.63;;;4.30;99.90;;;;;;4998548;28;20749;-43
2023/03/08 11:09:42;;;;;;;21.60;14.48;;;4.30;99.90;;;;;;4998530;28;20144;-43
2023/03/08 11:12:27;;;;;;;19.40;13.65;;;4.40;99.90;;;;;;4997072;28;20405;-43
2023/03/08 11:14:52;;;;;;;16.85;12.40;;;4.40;99.90;;;;;;4998139;28;20071;-42
2023/03/08 11:17:34;;;;;;;19.48;11.50;;;4.50;99.90;;;;;;4994306;28;20626;-43
2023/03/08 11:20:22;;;;;;;16.17;11.63;;;4.50;99.90;;;;;;4997861;28;20138;-42
2023/03/08 11:22:48;;;;;;;17.45;11.07;;;4.60;99.90;;;;;;4996213;28;20026;-42
2023/03/08 11:25:21;;;;;;;18.42;12.10;;;4.60;99.90;;;;;;4996770;28;20076;-43
2023/03/08 11:28:13;;;;;;;20.33;13.05;;;4.60;99.90;;;;;;4997190;28;20076;-42
2023/03/08 11:31:13;;;;;;;19.17;12.63;;;4.50;99.90;;;;;;4994442;28;20116;-43
2023/03/08 11:34:15;;;;;;;20.10;13.60;;;4.50;99.90;;;;;;4993290;28;20038;-42
2023/03/08 11:37:09;;;;;;;30.30;17.02;;;4.50;99.90;;;;;;4995100;28;20046;-44
2023/03/08 11:39:59;;;;;;;26.83;15.68;;;4.40;99.90;;;;;;4994922;28;20022;-42
2023/03/08 11:42:46;;;;;;;23.65;14.75;;;4.40;99.90;;;;;;4994731;28;20870;-42
2023/03/08 11:45:34;;;;;;;21.48;13.48;;;4.40;99.90;;;;;;4994472;28;20896;-43
2023/03/08 11:48:11;;;;;;;18.73;12.70;;;4.50;99.90;;;;;;4996579;28;20030;-43
2023/03/08 11:50:52;;;;;;;20.05;12.25;;;4.50;99.90;;;;;;4996335;28;20057;-44
2023/03/08 11:53:44;;;;;;;18.67;12.32;;;4.50;99.90;;;;;;4995559;28;20037;-43
2023/03/08 11:56:13;;;;;;;22.90;12.75;;;4.60;99.90;;;;;;4990535;28;20050;-43
2023/03/08 11:58:49;;;;;;;22.20;14.50;;;4.60;99.90;;;;;;4996830;28;20029;-43
2023/03/08 12:01:26;;;;;;;20.35;13.13;;;4.70;99.90;;;;;;4996203;28;20061;-43
2023/03/08 12:03:56;;;;;;;21.38;13.63;;;4.70;99.90;;;;;;4996016;28;20072;-42
2023/03/08 12:06:39;;;;;;;21.73;14.35;;;4.80;99.90;;;;;;4997013;28;20029;-43
2023/03/08 12:09:25;;;;;;;23.17;14.38;;;4.80;99.90;;;;;;4994968;28;20839;-43
2023/03/08 12:12:00;;;;;;;23.08;15.55;;;4.80;99.90;;;;;;4995456;28;20030;-43
2023/03/08 12:14:37;;;;;;;24.83;15.95;;;4.70;99.90;;;;;;4996817;28;20053;-43
2023/03/08 12:17:25;;;;;;;24.55;15.55;;;4.70;99.90;;;;;;4995417;28;20112;-43
2023/03/08 12:19:51;;;;;;;23.67;15.70;;;4.70;99.90;;;;;;4995596;28;20432;-43
2023/03/08 12:22:38;;;;;;;22.75;15.32;;;4.70;99.90;;;;;;4995482;28;20029;-44
2023/03/08 12:25:28;;;;;;;21.98;14.60;;;4.70;99.90;;;;;;4996050;28;20034;-44
2023/03/08 12:28:10;;;;;;;23.35;15.82;;;4.80;99.90;;;;;;4997032;28;20034;-43
2023/03/08 12:30:45;;;;;;;22.17;14.85;;;4.80;99.90;;;;;;4995049;28;20508;-43
2023/03/08 12:33:13;;;;;;;23.48;15.50;;;4.80;99.90;;;;;;4995231;28;20030;-43
2023/03/08 12:35:49;;;;;;;21.23;15.07;;;4.80;99.90;;;;;;4996438;28;20056;-42
2023/03/08 12:38:17;;;;;;;19.92;14.00;;;4.70;99.90;;;;;;4995445;28;20034;-43
2023/03/08 12:40:47;;;;;;;20.17;13.95;;;4.70;99.90;;;;;;4996845;28;20052;-42
2023/03/08 12:43:31;;;;;;;20.30;13.85;;;4.60;99.90;;;;;;4995291;28;20022;-42
2023/03/08 12:45:59;;;;;;;19.42;13.13;;;4.70;99.90;;;;;;4996105;28;20037;-43
2023/03/08 12:48:43;;;;;;;20.15;13.30;;;4.80;99.90;;;;;;4996256;28;20481;-43
2023/03/08 12:51:12;;;;;;;17.23;12.10;;;4.90;99.90;;;;;;4992566;28;20077;-43